createdAt,value
2018-07-26T00:02:15.032Z,12.57
2018-07-26T00:04:43.236Z,11.97
2018-07-26T00:07:11.427Z,11.87
2018-07-26T00:09:39.798Z,11.57
2018-07-26T00:12:08.067Z,12.50
2018-07-26T00:14:36.277Z,11.93
2018-07-26T00:17:04.572Z,12.43
2018-07-26T00:19:32.852Z,13.20
2018-07-26T00:22:01.279Z,12.47
2018-07-26T00:24:29.710Z,11.73
2018-07-26T00:26:57.968Z,12.80
2018-07-26T00:29:26.279Z,12.00
2018-07-26T00:31:54.483Z,12.63
2018-07-26T00:34:22.707Z,11.40
2018-07-26T00:36:50.942Z,11.30
2018-07-26T00:39:19.109Z,12.20
2018-07-26T00:41:47.324Z,11.47
2018-07-26T00:44:15.532Z,11.50
2018-07-26T00:46:43.760Z,11.70
2018-07-26T00:49:11.947Z,11.73
2018-07-26T00:51:40.371Z,13.07
2018-07-26T00:54:08.641Z,11.67
2018-07-26T00:56:36.855Z,11.93
2018-07-26T00:59:05.112Z,12.33
2018-07-26T01:01:33.372Z,12.40
2018-07-26T01:04:01.600Z,12.87
2018-07-26T01:06:29.835Z,12.30
2018-07-26T01:08:58.096Z,12.20
2018-07-26T01:11:26.313Z,12.07
2018-07-26T01:13:54.518Z,13.47
2018-07-26T01:16:22.804Z,11.60
2018-07-26T01:18:51.006Z,12.77
2018-07-26T01:21:19.223Z,12.77
2018-07-26T01:23:47.486Z,12.90
2018-07-26T01:26:15.711Z,12.27
2018-07-26T01:28:44.000Z,12.70
2018-07-26T01:31:12.147Z,13.03
2018-07-26T01:33:40.381Z,12.20
2018-07-26T01:36:08.605Z,10.37
2018-07-26T01:38:36.883Z,11.03
2018-07-26T01:41:05.131Z,12.73
2018-07-26T01:43:53.575Z,12.90
2018-07-26T01:46:22.994Z,13.97
2018-07-26T01:48:51.257Z,14.77
2018-07-26T01:51:19.483Z,14.40
2018-07-26T01:54:05.934Z,13.53
2018-07-26T01:56:33.925Z,14.07
2018-07-26T01:59:02.172Z,13.57
2018-07-26T02:01:30.488Z,12.97
2018-07-26T02:03:58.681Z,13.47
2018-07-26T02:06:26.930Z,13.13
2018-07-26T02:08:55.132Z,13.80
2018-07-26T02:11:23.391Z,13.93
2018-07-26T02:13:51.605Z,13.57
2018-07-26T02:16:19.945Z,13.37
2018-07-26T02:18:48.163Z,13.07
2018-07-26T02:21:16.542Z,12.93
2018-07-26T02:23:44.817Z,13.60
2018-07-26T02:26:13.033Z,13.90
2018-07-26T02:28:41.322Z,15.07
2018-07-26T02:31:09.625Z,14.90
2018-07-26T02:33:37.909Z,13.70
2018-07-26T02:36:06.104Z,14.20
2018-07-26T02:38:34.369Z,12.90
2018-07-26T02:41:02.584Z,13.30
2018-07-26T02:43:30.793Z,13.37
2018-07-26T02:45:58.990Z,13.67
2018-07-26T02:48:27.291Z,13.73
2018-07-26T02:50:55.521Z,14.60
2018-07-26T02:53:23.823Z,14.43
2018-07-26T02:55:52.017Z,15.83
2018-07-26T02:58:20.268Z,15.37
2018-07-26T03:00:48.537Z,15.77
2018-07-26T03:03:16.776Z,14.80
2018-07-26T03:05:45.006Z,14.60
2018-07-26T03:08:13.391Z,13.97
2018-07-26T03:10:41.641Z,14.33
2018-07-26T03:13:09.928Z,13.37
2018-07-26T03:15:38.126Z,14.83
2018-07-26T03:18:06.397Z,14.27
2018-07-26T03:20:34.656Z,14.50
2018-07-26T03:23:02.928Z,14.20
2018-07-26T03:25:31.132Z,14.07
2018-07-26T03:27:59.333Z,14.27
2018-07-26T03:30:27.540Z,15.33
2018-07-26T03:32:55.817Z,14.17
2018-07-26T03:35:24.019Z,14.63
2018-07-26T03:37:52.238Z,15.07
2018-07-26T03:40:20.485Z,15.30
2018-07-26T03:42:48.786Z,15.23
2018-07-26T03:45:17.005Z,15.00
2018-07-26T03:47:45.225Z,15.40
2018-07-26T03:50:13.589Z,15.83
2018-07-26T03:52:41.837Z,16.23
2018-07-26T03:55:10.020Z,15.13
2018-07-26T03:57:38.229Z,15.70
2018-07-26T04:00:06.686Z,15.10
2018-07-26T04:02:34.892Z,14.77
2018-07-26T04:05:03.190Z,16.00
2018-07-26T04:07:31.485Z,15.97
2018-07-26T04:09:59.732Z,15.50
2018-07-26T04:12:28.013Z,15.97
2018-07-26T04:14:56.225Z,13.80
2018-07-26T04:17:24.480Z,16.20
2018-07-26T04:19:53.792Z,16.77
2018-07-26T04:22:22.058Z,15.57
2018-07-26T04:24:50.302Z,16.50
2018-07-26T04:27:18.527Z,15.40
2018-07-26T04:29:46.767Z,14.40
2018-07-26T04:32:15.089Z,14.73
2018-07-26T04:34:43.315Z,14.27
2018-07-26T04:37:13.602Z,16.03
2018-07-26T04:39:41.802Z,16.13
2018-07-26T04:42:10.022Z,15.63
2018-07-26T04:44:38.201Z,16.87
2018-07-26T04:47:06.562Z,15.57
2018-07-26T04:49:47.421Z,14.97
2018-07-26T04:52:17.728Z,14.67
2018-07-26T04:54:48.022Z,14.73
2018-07-26T04:57:19.752Z,13.23
2018-07-26T04:59:47.929Z,13.60
2018-07-26T05:02:21.455Z,13.40
2018-07-26T05:04:49.732Z,13.40
2018-07-26T05:07:17.995Z,13.20
2018-07-26T05:09:46.187Z,12.07
2018-07-26T05:12:18.110Z,12.77
2018-07-26T05:14:51.197Z,14.67
2018-07-26T05:17:19.382Z,13.80
2018-07-26T05:19:47.999Z,13.27
2018-07-26T05:22:20.061Z,14.80
2018-07-26T05:24:48.254Z,13.53
2018-07-26T05:27:17.510Z,13.53
2018-07-26T05:29:45.682Z,13.73
2018-07-26T05:32:17.368Z,12.93
2018-07-26T05:34:45.571Z,12.10
2018-07-26T05:37:13.748Z,10.67
2018-07-26T05:39:41.910Z,11.70
2018-07-26T05:42:10.468Z,11.90
2018-07-26T05:44:38.671Z,11.73
2018-07-26T05:47:07.034Z,10.70
2018-07-26T05:49:35.218Z,11.17
2018-07-26T05:52:03.419Z,11.00
2018-07-26T05:54:31.583Z,10.70
2018-07-26T05:57:01.814Z,11.23
2018-07-26T05:59:29.971Z,10.83
2018-07-26T06:01:58.193Z,10.07
2018-07-26T06:04:26.373Z,10.80
2018-07-26T06:06:54.575Z,9.87
2018-07-26T06:09:22.752Z,9.93
2018-07-26T06:11:50.981Z,10.60
2018-07-26T06:14:19.171Z,9.30
2018-07-26T06:16:47.360Z,9.47
2018-07-26T06:19:15.690Z,9.83
2018-07-26T06:21:43.892Z,8.73
2018-07-26T06:24:12.111Z,999.90
2018-07-26T06:26:40.312Z,999.90
2018-07-26T06:29:08.529Z,999.90
2018-07-26T06:31:36.734Z,999.90
2018-07-26T06:34:05.171Z,999.90
2018-07-26T06:36:33.352Z,999.90
2018-07-26T06:39:09.588Z,999.90
2018-07-26T06:41:37.804Z,999.90
2018-07-26T06:44:05.975Z,999.90
2018-07-26T06:46:34.205Z,999.90
2018-07-26T06:49:02.375Z,999.90
2018-07-26T06:51:30.575Z,999.90
2018-07-26T06:53:58.938Z,999.90
2018-07-26T06:56:27.114Z,999.90
2018-07-26T06:58:55.350Z,999.90
2018-07-26T07:01:23.603Z,999.90
2018-07-26T07:03:51.757Z,999.90
2018-07-26T07:06:19.935Z,999.90
2018-07-26T07:09:02.042Z,999.90
2018-07-26T07:11:47.906Z,999.90
2018-07-26T07:14:19.883Z,999.90
2018-07-26T07:16:48.077Z,999.90
2018-07-26T07:19:16.433Z,999.90
2018-07-26T07:21:44.611Z,999.90
2018-07-26T07:24:17.257Z,999.90
2018-07-26T07:26:45.413Z,999.90
2018-07-26T07:29:13.818Z,999.90
2018-07-26T07:31:41.963Z,999.90
2018-07-26T07:34:10.141Z,999.90
2018-07-26T07:36:38.553Z,999.90
2018-07-26T07:39:09.080Z,14.43
2018-07-26T07:41:37.291Z,999.90
2018-07-26T07:44:05.772Z,24.20
2018-07-26T07:46:34.005Z,5.10
2018-07-26T07:49:02.150Z,4.57
2018-07-26T07:51:30.406Z,13.60
2018-07-26T07:53:58.575Z,5.77
2018-07-26T07:56:26.792Z,4.13
2018-07-26T07:58:55.011Z,5.33
2018-07-26T08:01:23.190Z,4.90
2018-07-26T08:03:51.331Z,5.37
2018-07-26T08:06:19.820Z,4.90
2018-07-26T08:08:47.966Z,5.37
2018-07-26T08:11:16.175Z,4.87
2018-07-26T08:13:44.332Z,999.90
2018-07-26T08:16:12.529Z,999.90
2018-07-26T08:18:40.486Z,999.90
2018-07-26T08:21:08.756Z,999.90
2018-07-26T08:23:36.971Z,999.90
2018-07-26T08:26:05.527Z,999.90
2018-07-26T08:28:33.791Z,999.90
2018-07-26T08:31:01.963Z,999.90
2018-07-26T08:33:30.156Z,999.90
2018-07-26T08:35:58.298Z,999.90
2018-07-26T08:38:26.471Z,999.90
2018-07-26T08:40:54.663Z,999.90
2018-07-26T08:43:22.822Z,999.90
2018-07-26T08:45:51.014Z,999.90
2018-07-26T08:48:18.989Z,999.90
2018-07-26T08:50:47.432Z,999.90
2018-07-26T08:53:15.730Z,999.90
2018-07-26T08:55:43.941Z,999.90
2018-07-26T08:58:12.138Z,546.30
2018-07-26T09:00:40.452Z,999.90
2018-07-26T09:03:08.675Z,999.90
2018-07-26T09:05:36.918Z,999.90
2018-07-26T09:08:05.236Z,999.90
2018-07-26T09:10:34.349Z,999.90
2018-07-26T09:13:02.544Z,999.90
2018-07-26T09:15:30.775Z,2.83
2018-07-26T09:17:59.048Z,2.30
2018-07-26T09:20:27.273Z,3.20
2018-07-26T09:22:55.762Z,16.73
2018-07-26T09:25:23.928Z,999.90
2018-07-26T09:27:52.145Z,999.90
2018-07-26T09:30:20.444Z,999.90
2018-07-26T09:32:48.675Z,122.30
2018-07-26T09:35:17.249Z,999.90
2018-07-26T09:37:45.463Z,999.90
2018-07-26T09:40:14.014Z,4.40
2018-07-26T09:42:42.251Z,3.53
2018-07-26T09:45:10.435Z,999.90
2018-07-26T09:47:38.599Z,999.90
2018-07-26T09:50:07.224Z,404.97
2018-07-26T09:52:35.363Z,5.20
2018-07-26T09:55:03.616Z,999.90
2018-07-26T09:57:31.766Z,999.90
2018-07-26T09:59:59.910Z,999.90
2018-07-26T10:02:28.174Z,999.90
2018-07-26T10:04:56.332Z,946.57
2018-07-26T10:07:24.532Z,999.90
2018-07-26T10:09:52.683Z,2.40
2018-07-26T10:12:20.851Z,999.90
2018-07-26T10:14:49.051Z,999.90
2018-07-26T10:17:17.211Z,137.03
2018-07-26T10:19:45.402Z,3.40
2018-07-26T10:22:13.547Z,3.50
2018-07-26T10:24:41.703Z,3.23
2018-07-26T10:27:09.846Z,3.20
2018-07-26T10:29:37.991Z,3.63
2018-07-26T10:32:06.320Z,11.43
2018-07-26T10:34:34.502Z,17.07
2018-07-26T10:37:02.676Z,174.73
2018-07-26T10:39:30.924Z,44.10
2018-07-26T10:41:59.086Z,29.60
2018-07-26T10:44:27.267Z,2.50
2018-07-26T10:46:55.373Z,35.60
2018-07-26T10:49:23.554Z,999.90
2018-07-26T10:51:51.729Z,27.43
2018-07-26T10:54:19.903Z,302.50
2018-07-26T10:56:49.119Z,42.63
2018-07-26T10:59:17.290Z,21.83
2018-07-26T11:01:45.527Z,24.27
2018-07-26T11:04:13.671Z,12.03
2018-07-26T11:06:41.873Z,5.20
2018-07-26T11:09:10.371Z,6.57
2018-07-26T11:11:38.780Z,4.40
2018-07-26T11:14:13.207Z,4.60
2018-07-26T11:16:41.478Z,3.90
2018-07-26T11:19:09.487Z,9.10
2018-07-26T11:21:37.673Z,3.77
2018-07-26T11:24:06.116Z,999.90
2018-07-26T11:26:34.299Z,999.90
2018-07-26T11:29:02.466Z,999.90
2018-07-26T11:31:30.656Z,999.90
2018-07-26T11:33:58.959Z,999.90
2018-07-26T11:36:27.172Z,999.90
2018-07-26T11:38:55.332Z,999.90
2018-07-26T11:41:26.485Z,999.90
2018-07-26T11:43:54.635Z,999.90
2018-07-26T11:46:22.780Z,999.90
2018-07-26T11:48:50.961Z,999.90
2018-07-26T11:51:19.126Z,999.90
2018-07-26T11:53:47.308Z,999.90
2018-07-26T11:56:15.491Z,999.90
2018-07-26T11:58:43.659Z,999.90
2018-07-26T12:01:11.825Z,999.90
2018-07-26T12:03:39.963Z,999.90
2018-07-26T12:06:08.141Z,7.40
2018-07-26T12:08:36.285Z,2.50
2018-07-26T12:11:04.505Z,999.90
2018-07-26T12:13:32.666Z,345.07
2018-07-26T12:16:00.827Z,512.30
2018-07-26T12:18:29.011Z,446.30
2018-07-26T12:20:57.221Z,53.17
2018-07-26T12:23:25.360Z,114.27
2018-07-26T12:25:53.527Z,187.40
2018-07-26T12:28:21.678Z,84.83
2018-07-26T12:30:49.825Z,31.57
2018-07-26T12:33:18.032Z,4.00
2018-07-26T12:35:46.239Z,309.37
2018-07-26T12:38:14.341Z,6.23
2018-07-26T12:40:42.548Z,389.97
2018-07-26T12:43:10.714Z,788.23
2018-07-26T12:45:38.908Z,3.63
2018-07-26T12:48:07.063Z,2.00
2018-07-26T12:50:35.227Z,174.03
2018-07-26T12:53:03.465Z,1.50
2018-07-26T12:55:31.616Z,1.63
2018-07-26T12:57:59.769Z,999.90
2018-07-26T13:00:28.127Z,758.70
2018-07-26T13:02:56.335Z,999.90
2018-07-26T13:05:24.496Z,2.10
2018-07-26T13:07:52.641Z,4.80
2018-07-26T13:10:20.842Z,32.17
2018-07-26T13:12:48.998Z,999.90
2018-07-26T13:15:17.202Z,834.33
2018-07-26T13:17:45.373Z,256.60
2018-07-26T13:20:13.526Z,2.40
2018-07-26T13:22:41.719Z,2.47
2018-07-26T13:25:09.898Z,2.90
2018-07-26T13:27:38.070Z,24.97
2018-07-26T13:30:06.360Z,527.43
2018-07-26T13:32:34.874Z,17.20
2018-07-26T13:35:03.064Z,19.43
2018-07-26T13:37:31.225Z,999.90
2018-07-26T13:39:59.424Z,999.90
2018-07-26T13:42:27.604Z,999.90
2018-07-26T13:44:55.762Z,999.90
2018-07-26T13:47:23.958Z,999.90
2018-07-26T13:49:52.157Z,999.90
2018-07-26T13:52:20.389Z,999.90
2018-07-26T13:54:48.510Z,999.90
2018-07-26T13:57:16.903Z,25.40
2018-07-26T13:59:45.101Z,999.90
2018-07-26T14:02:13.270Z,999.90
2018-07-26T14:04:41.442Z,999.90
2018-07-26T14:07:09.667Z,999.90
2018-07-26T14:09:37.818Z,999.90
2018-07-26T14:12:06.027Z,999.90
2018-07-26T14:14:34.195Z,999.90
2018-07-26T14:17:02.383Z,10.20
2018-07-26T14:19:30.522Z,5.07
2018-07-26T14:21:58.710Z,2.57
2018-07-26T14:24:26.876Z,2.93
2018-07-26T14:26:55.045Z,95.27
2018-07-26T14:29:23.269Z,10.73
2018-07-26T14:31:51.442Z,999.90
2018-07-26T14:34:19.627Z,266.80
2018-07-26T14:36:47.955Z,3.00
2018-07-26T14:39:16.125Z,999.90
2018-07-26T14:41:44.298Z,999.90
2018-07-26T14:44:12.474Z,999.90
2018-07-26T14:46:40.642Z,999.90
2018-07-26T14:49:08.899Z,999.90
2018-07-26T14:51:37.105Z,999.90
2018-07-26T14:54:05.285Z,999.90
2018-07-26T14:56:33.607Z,6.03
2018-07-26T14:59:01.740Z,999.90
2018-07-26T15:01:29.966Z,999.90
2018-07-26T15:03:58.216Z,502.67
2018-07-26T15:06:26.404Z,4.47
2018-07-26T15:08:54.598Z,999.90
2018-07-26T15:11:22.790Z,999.90
2018-07-26T15:13:50.961Z,53.37
2018-07-26T15:16:20.278Z,17.97
2018-07-26T15:18:48.470Z,33.20
2018-07-26T15:21:17.008Z,999.90
2018-07-26T15:23:45.195Z,999.90
2018-07-26T15:26:13.410Z,58.53
2018-07-26T15:28:41.554Z,10.37
2018-07-26T15:31:10.739Z,4.97
2018-07-26T15:33:38.288Z,3.03
2018-07-26T15:36:06.442Z,3.00
2018-07-26T15:38:34.580Z,2.70
2018-07-26T15:41:02.745Z,2.87
2018-07-26T15:43:30.933Z,999.90
2018-07-26T15:45:59.054Z,6.00
2018-07-26T15:48:27.243Z,3.07
2018-07-26T15:50:55.396Z,999.90
2018-07-26T15:53:23.579Z,77.60
2018-07-26T15:55:51.722Z,5.30
2018-07-26T15:58:19.891Z,3.63
2018-07-26T16:00:48.415Z,2.70
2018-07-26T16:03:17.641Z,19.40
2018-07-26T16:05:45.553Z,11.37
2018-07-26T16:08:13.981Z,4.00
2018-07-26T16:10:42.158Z,2.60
2018-07-26T16:13:10.361Z,90.17
2018-07-26T16:15:38.523Z,3.50
2018-07-26T16:18:06.777Z,113.77
2018-07-26T16:20:35.830Z,3.60
2018-07-26T16:23:04.654Z,8.50
2018-07-26T16:25:32.875Z,3.47
2018-07-26T16:28:01.595Z,21.07
2018-07-26T16:30:29.801Z,192.13
2018-07-26T16:32:57.959Z,34.57
2018-07-26T16:35:25.915Z,12.33
2018-07-26T16:37:54.050Z,2.27
2018-07-26T16:40:22.233Z,19.20
2018-07-26T16:42:50.423Z,28.80
2018-07-26T16:45:18.611Z,6.70
2018-07-26T16:47:46.845Z,3.43
2018-07-26T16:50:15.036Z,2.60
2018-07-26T16:52:43.268Z,3.47
2018-07-26T16:55:11.473Z,4.00
2018-07-26T16:57:39.810Z,2.30
2018-07-26T17:00:09.103Z,96.43
2018-07-26T17:02:37.389Z,16.80
2018-07-26T17:05:06.335Z,8.73
2018-07-26T17:07:34.632Z,2.90
2018-07-26T17:10:03.194Z,14.43
2018-07-26T17:12:31.826Z,63.43
2018-07-26T17:15:00.068Z,184.67
2018-07-26T17:17:28.494Z,12.83
2018-07-26T17:19:57.203Z,4.77
2018-07-26T17:22:25.757Z,11.87
2018-07-26T17:24:54.368Z,11.50
2018-07-26T17:27:22.627Z,22.10
2018-07-26T17:29:50.844Z,15.03
2018-07-26T17:32:19.065Z,24.23
2018-07-26T17:34:47.060Z,29.30
2018-07-26T17:37:15.333Z,10.23
2018-07-26T17:39:43.561Z,114.70
2018-07-26T17:42:11.914Z,4.20
2018-07-26T17:44:40.440Z,6.70
2018-07-26T17:47:08.723Z,8.10
2018-07-26T17:49:36.935Z,4.53
2018-07-26T17:52:05.235Z,32.67
2018-07-26T17:54:33.700Z,5.53
2018-07-26T17:57:01.994Z,30.43
2018-07-26T17:59:30.343Z,7.43
2018-07-26T18:01:58.873Z,141.10
2018-07-26T18:04:27.115Z,30.97
2018-07-26T18:06:55.449Z,42.83
2018-07-26T18:09:23.619Z,20.10
2018-07-26T18:11:51.840Z,14.57
2018-07-26T18:14:20.096Z,110.87
2018-07-26T18:16:49.559Z,231.83
2018-07-26T18:19:18.798Z,53.70
2018-07-26T18:21:47.061Z,6.77
2018-07-26T18:24:15.230Z,120.43
2018-07-26T18:26:43.583Z,2.73
2018-07-26T18:29:11.787Z,2.57
2018-07-26T18:31:39.989Z,2.20
2018-07-26T18:34:08.231Z,2.50
2018-07-26T18:36:36.395Z,2.30
2018-07-26T18:39:07.828Z,2.27
2018-07-26T18:41:36.399Z,2.27
2018-07-26T18:44:05.042Z,2.70
2018-07-26T18:46:33.099Z,2.47
2018-07-26T18:49:01.327Z,2.60
2018-07-26T18:51:29.677Z,2.27
2018-07-26T18:53:57.834Z,2.50
2018-07-26T18:56:26.006Z,2.40
2018-07-26T18:58:54.352Z,2.63
2018-07-26T19:01:22.584Z,2.83
2018-07-26T19:03:50.996Z,2.70
2018-07-26T19:06:19.780Z,2.37
2018-07-26T19:08:48.007Z,2.40
2018-07-26T19:11:16.234Z,2.60
2018-07-26T19:13:44.436Z,2.70
2018-07-26T19:16:12.687Z,2.53
2018-07-26T19:18:40.855Z,2.80
2018-07-26T19:21:09.111Z,2.73
2018-07-26T19:23:37.915Z,2.93
2018-07-26T19:26:07.363Z,2.80
2018-07-26T19:28:35.557Z,2.80
2018-07-26T19:31:03.809Z,2.67
2018-07-26T19:33:32.093Z,2.70
2018-07-26T19:36:00.915Z,2.80
2018-07-26T19:38:29.420Z,2.90
2018-07-26T19:40:57.692Z,2.80
2018-07-26T19:43:25.941Z,2.40
2018-07-26T19:45:54.235Z,2.83
2018-07-26T19:48:22.651Z,2.67
2018-07-26T19:50:51.152Z,2.90
2018-07-26T19:53:19.358Z,2.70
2018-07-26T19:55:47.638Z,2.80
2018-07-26T19:58:15.833Z,2.80
2018-07-26T20:00:44.055Z,2.63
2018-07-26T20:03:12.268Z,2.67
2018-07-26T20:05:40.479Z,2.80
2018-07-26T20:08:08.885Z,2.97
2018-07-26T20:10:37.058Z,2.90
2018-07-26T20:13:05.403Z,3.20
2018-07-26T20:15:37.916Z,3.20
2018-07-26T20:18:06.085Z,3.23
2018-07-26T20:20:34.720Z,3.17
2018-07-26T20:23:02.901Z,3.40
2018-07-26T20:25:31.905Z,3.20
2018-07-26T20:28:00.117Z,3.43
2018-07-26T20:30:28.266Z,3.20
2018-07-26T20:32:57.459Z,3.30
2018-07-26T20:35:25.587Z,3.17
2018-07-26T20:37:53.767Z,3.07
2018-07-26T20:40:22.171Z,3.53
2018-07-26T20:42:50.448Z,3.13
2018-07-26T20:45:19.326Z,2.77
2018-07-26T20:47:47.502Z,2.77
2018-07-26T20:50:15.782Z,3.13
2018-07-26T20:52:44.712Z,3.43
2018-07-26T20:55:13.140Z,3.60
2018-07-26T20:57:42.055Z,3.00
2018-07-26T21:00:11.792Z,3.20
2018-07-26T21:02:40.254Z,3.13
2018-07-26T21:05:08.708Z,3.30
2018-07-26T21:07:36.918Z,3.10
2018-07-26T21:10:05.883Z,3.40
2018-07-26T21:12:34.073Z,3.33
2018-07-26T21:15:07.510Z,3.60
2018-07-26T21:17:35.951Z,3.30
2018-07-26T21:20:04.434Z,3.37
2018-07-26T21:22:32.638Z,3.40
2018-07-26T21:25:01.928Z,3.10
2018-07-26T21:27:30.164Z,3.40
2018-07-26T21:29:58.414Z,3.63
2018-07-26T21:32:26.634Z,3.63
2018-07-26T21:34:54.960Z,3.43
2018-07-26T21:37:23.247Z,3.53
2018-07-26T21:39:51.512Z,3.13
2018-07-26T21:42:19.736Z,3.60
2018-07-26T21:44:47.986Z,3.33
2018-07-26T21:47:16.275Z,3.50
2018-07-26T21:49:44.737Z,3.70
2018-07-26T21:52:12.935Z,3.53
2018-07-26T21:54:41.102Z,4.00
2018-07-26T21:57:09.266Z,3.50
2018-07-26T21:59:37.454Z,3.40
2018-07-26T22:02:06.165Z,3.90
2018-07-26T22:04:34.399Z,3.83
2018-07-26T22:07:02.575Z,3.90
2018-07-26T22:09:30.884Z,3.53
2018-07-26T22:11:59.133Z,3.53
2018-07-26T22:14:27.394Z,3.87
2018-07-26T22:16:58.401Z,3.90
2018-07-26T22:19:29.586Z,3.67
2018-07-26T22:22:01.340Z,3.23
2018-07-26T22:24:31.079Z,3.17
2018-07-26T22:27:02.427Z,3.57
2018-07-26T22:29:33.240Z,3.43
2018-07-26T22:32:01.854Z,3.50
2018-07-26T22:34:36.330Z,3.80
2018-07-26T22:37:05.289Z,16.03
2018-07-26T22:39:33.817Z,3.30
2018-07-26T22:42:02.216Z,3.80
2018-07-26T22:44:31.039Z,3.00
2018-07-26T22:46:59.407Z,2.80
2018-07-26T22:49:29.455Z,3.50
2018-07-26T22:51:58.049Z,3.47
2018-07-26T22:54:26.313Z,3.40
2018-07-26T22:56:54.652Z,3.43
2018-07-26T22:59:22.949Z,3.20
2018-07-26T23:01:51.236Z,3.80
2018-07-26T23:04:19.474Z,3.40
2018-07-26T23:06:47.704Z,3.70
2018-07-26T23:09:15.897Z,3.33
2018-07-26T23:11:44.067Z,3.43
2018-07-26T23:14:12.310Z,3.53
2018-07-26T23:16:40.486Z,3.67
2018-07-26T23:19:08.677Z,3.30
2018-07-26T23:21:36.855Z,3.63
2018-07-26T23:24:05.054Z,3.53
2018-07-26T23:26:33.211Z,3.60
2018-07-26T23:29:01.381Z,3.93
2018-07-26T23:31:29.551Z,3.60
2018-07-26T23:33:57.734Z,3.80
2018-07-26T23:36:25.917Z,3.80
2018-07-26T23:38:54.098Z,3.47
2018-07-26T23:41:22.317Z,4.30
2018-07-26T23:43:50.637Z,4.27
2018-07-26T23:46:18.578Z,3.80
2018-07-26T23:48:46.751Z,4.40
2018-07-26T23:51:14.884Z,4.70
2018-07-26T23:53:42.997Z,4.00
2018-07-26T23:56:11.155Z,3.93
2018-07-26T23:58:39.384Z,4.00
